createdAt,value
2022-11-15T00:03:26.992Z,10.00
2022-11-15T00:06:47.609Z,9.73
2022-11-15T00:10:08.870Z,9.60
2022-11-15T00:13:30.644Z,9.73
2022-11-15T00:16:51.312Z,9.55
2022-11-15T00:20:12.565Z,9.44
2022-11-15T00:23:34.689Z,9.28
2022-11-15T00:26:55.223Z,9.28
2022-11-15T00:30:15.814Z,9.47
2022-11-15T00:33:36.331Z,9.17
2022-11-15T00:36:56.849Z,9.17
2022-11-15T00:40:22.432Z,9.06
2022-11-15T00:43:44.733Z,9.15
2022-11-15T00:47:05.765Z,9.01
2022-11-15T00:50:26.156Z,9.09
2022-11-15T00:53:46.648Z,9.04
2022-11-15T00:57:06.956Z,9.03
2022-11-15T01:00:27.409Z,8.96
2022-11-15T01:03:47.896Z,9.02
2022-11-15T01:07:08.435Z,8.96
2022-11-15T01:10:29.497Z,9.08
2022-11-15T01:13:50.058Z,9.22
2022-11-15T01:17:10.486Z,9.14
2022-11-15T01:20:30.927Z,9.17
2022-11-15T01:23:55.755Z,9.16
2022-11-15T01:27:16.129Z,9.15
2022-11-15T01:30:37.449Z,9.02
2022-11-15T01:33:57.964Z,9.16
2022-11-15T01:37:18.476Z,9.15
2022-11-15T01:40:38.913Z,9.17
2022-11-15T01:44:37.656Z,9.45
2022-11-15T01:47:58.331Z,9.43
2022-11-15T01:51:19.994Z,9.41
2022-11-15T01:54:40.356Z,9.39
2022-11-15T01:58:02.788Z,9.48
2022-11-15T02:01:23.319Z,9.44
2022-11-15T02:04:47.146Z,9.42
2022-11-15T02:08:07.812Z,9.50
2022-11-15T02:11:28.758Z,9.53
2022-11-15T02:14:53.791Z,9.58
2022-11-15T02:18:29.368Z,9.62
2022-11-15T02:22:20.229Z,9.33
2022-11-15T02:25:51.521Z,9.75
2022-11-15T02:29:15.159Z,9.51
2022-11-15T02:32:49.538Z,9.60
2022-11-15T02:36:37.559Z,9.68
2022-11-15T02:40:25.472Z,9.62
2022-11-15T02:44:00.156Z,9.81
2022-11-15T02:47:20.574Z,9.79
2022-11-15T02:50:41.134Z,9.84
2022-11-15T02:54:01.490Z,9.99
2022-11-15T02:57:32.330Z,9.85
2022-11-15T03:01:21.315Z,9.98
2022-11-15T03:04:47.811Z,9.80
2022-11-15T03:08:31.832Z,9.75
2022-11-15T03:11:59.537Z,9.53
2022-11-15T03:15:32.707Z,9.51
2022-11-15T03:19:35.315Z,9.32
2022-11-15T03:22:57.976Z,9.43
2022-11-15T03:26:18.845Z,9.48
2022-11-15T03:29:42.339Z,9.41
2022-11-15T03:33:03.165Z,9.66
2022-11-15T03:36:23.852Z,9.72
2022-11-15T03:39:44.713Z,9.85
2022-11-15T03:43:42.101Z,9.45
2022-11-15T03:47:12.737Z,9.85
2022-11-15T03:50:33.160Z,9.93
2022-11-15T03:53:53.466Z,9.77
2022-11-15T03:57:14.303Z,10.12
2022-11-15T04:00:34.808Z,9.88
2022-11-15T04:03:55.693Z,9.67
2022-11-15T04:07:16.156Z,9.89
2022-11-15T04:10:37.130Z,10.02
2022-11-15T04:13:57.538Z,9.71
2022-11-15T04:17:17.939Z,9.72
2022-11-15T04:20:56.657Z,9.59
2022-11-15T04:24:17.290Z,9.50
2022-11-15T04:27:38.236Z,9.43
2022-11-15T04:30:58.864Z,9.48
2022-11-15T04:34:19.316Z,9.33
2022-11-15T04:37:40.620Z,9.26
2022-11-15T04:41:03.893Z,9.08
2022-11-15T04:44:24.185Z,9.17
2022-11-15T04:47:46.237Z,9.12
2022-11-15T04:51:06.768Z,9.26
2022-11-15T04:54:27.265Z,9.31
2022-11-15T04:57:47.684Z,9.38
2022-11-15T05:01:13.032Z,9.21
2022-11-15T05:04:34.027Z,9.34
2022-11-15T05:07:54.777Z,9.52
2022-11-15T05:11:15.379Z,9.17
2022-11-15T05:14:35.778Z,9.34
2022-11-15T05:18:01.322Z,9.52
2022-11-15T05:21:21.998Z,9.38
2022-11-15T05:24:42.627Z,9.73
2022-11-15T05:28:03.185Z,9.34
2022-11-15T05:31:23.821Z,9.14
2022-11-15T05:34:44.617Z,9.47
2022-11-15T05:38:05.142Z,9.07
2022-11-15T05:41:34.853Z,8.76
2022-11-15T05:44:55.180Z,8.90
2022-11-15T05:48:15.699Z,8.77
2022-11-15T05:51:36.552Z,8.68
2022-11-15T05:54:57.283Z,8.80
2022-11-15T05:58:17.906Z,8.88
2022-11-15T06:01:38.623Z,9.12
2022-11-15T06:04:59.381Z,9.14
2022-11-15T06:08:19.876Z,9.03
2022-11-15T06:11:40.298Z,9.09
2022-11-15T06:15:00.543Z,9.12
2022-11-15T06:18:20.946Z,9.02
2022-11-15T06:21:41.348Z,8.78
2022-11-15T06:25:05.408Z,8.82
2022-11-15T06:28:30.222Z,8.66
2022-11-15T06:31:50.877Z,8.60
2022-11-15T06:35:11.325Z,8.57
2022-11-15T06:38:31.730Z,8.89
2022-11-15T06:41:52.242Z,8.65
2022-11-15T06:45:12.528Z,8.63
2022-11-15T06:48:33.765Z,8.59
2022-11-15T06:51:54.141Z,8.62
2022-11-15T06:55:14.686Z,8.58
2022-11-15T06:58:36.097Z,8.71
2022-11-15T07:01:56.957Z,8.57
2022-11-15T07:05:17.522Z,8.76
2022-11-15T07:08:38.984Z,8.44
2022-11-15T07:12:04.615Z,8.48
2022-11-15T07:15:27.984Z,8.66
2022-11-15T07:18:48.348Z,8.76
2022-11-15T07:22:08.760Z,8.68
2022-11-15T07:25:29.305Z,8.50
2022-11-15T07:28:50.405Z,8.67
2022-11-15T07:32:11.117Z,8.88
2022-11-15T07:35:31.959Z,8.57
2022-11-15T07:38:52.273Z,8.78
2022-11-15T07:42:31.457Z,8.82
2022-11-15T07:45:56.116Z,8.97
2022-11-15T07:49:19.416Z,8.90
2022-11-15T07:52:39.769Z,8.90
2022-11-15T07:56:00.126Z,8.56
2022-11-15T07:59:20.665Z,8.94
2022-11-15T08:02:41.408Z,8.96
2022-11-15T08:06:02.172Z,8.65
2022-11-15T08:09:22.382Z,8.72
2022-11-15T08:12:42.802Z,8.90
2022-11-15T08:16:03.933Z,8.85
2022-11-15T08:19:24.471Z,8.65
2022-11-15T08:22:44.957Z,8.62
2022-11-15T08:26:05.913Z,8.62
2022-11-15T08:29:26.257Z,8.76
2022-11-15T08:32:46.748Z,8.69
2022-11-15T08:36:07.450Z,8.89
2022-11-15T08:39:28.173Z,9.04
2022-11-15T08:42:48.735Z,8.88
2022-11-15T08:46:12.952Z,9.08
2022-11-15T08:49:33.390Z,9.22
2022-11-15T08:52:53.751Z,9.06
2022-11-15T08:56:15.545Z,9.12
2022-11-15T08:59:36.779Z,8.91
2022-11-15T09:02:57.361Z,9.13
2022-11-15T09:06:17.848Z,9.30
2022-11-15T09:09:38.412Z,9.33
2022-11-15T09:12:59.145Z,9.35
2022-11-15T09:16:19.688Z,9.50
2022-11-15T09:19:40.094Z,9.43
2022-11-15T09:23:04.207Z,9.63
2022-11-15T09:26:24.779Z,9.98
2022-11-15T09:29:45.109Z,9.70
2022-11-15T09:33:12.602Z,9.97
2022-11-15T09:36:32.931Z,9.52
2022-11-15T09:39:53.541Z,10.04
2022-11-15T09:44:15.023Z,9.46
2022-11-15T09:47:41.204Z,9.48
2022-11-15T09:51:01.963Z,9.60
2022-11-15T09:54:52.290Z,9.60
2022-11-15T09:57:57.688Z,9.53
2022-11-15T10:00:59.787Z,9.32
2022-11-15T10:04:01.844Z,9.58
2022-11-15T10:07:16.121Z,9.63
2022-11-15T10:10:37.984Z,9.60
2022-11-15T10:13:43.953Z,9.74
2022-11-15T10:16:57.801Z,9.74
2022-11-15T10:20:21.911Z,9.60
2022-11-15T10:23:24.273Z,9.44
2022-11-15T10:26:26.501Z,9.54
2022-11-15T10:29:28.534Z,9.65
2022-11-15T10:32:30.591Z,9.52
2022-11-15T10:35:32.677Z,9.71
2022-11-15T10:38:36.430Z,9.80
2022-11-15T10:41:40.835Z,9.59
2022-11-15T10:44:44.380Z,9.75
2022-11-15T10:47:46.423Z,9.55
2022-11-15T10:50:48.901Z,9.80
2022-11-15T10:53:50.945Z,9.94
2022-11-15T10:56:55.954Z,9.75
2022-11-15T11:00:06.664Z,9.94
2022-11-15T11:03:31.400Z,9.60
2022-11-15T11:06:53.584Z,9.94
2022-11-15T11:10:49.182Z,9.81
2022-11-15T11:13:42.253Z,9.82
2022-11-15T11:16:50.920Z,9.91
2022-11-15T11:20:11.841Z,9.80
2022-11-15T11:23:30.549Z,9.84
2022-11-15T11:26:48.920Z,9.93
2022-11-15T11:30:08.313Z,9.82
2022-11-15T11:33:38.879Z,9.90
2022-11-15T11:36:52.616Z,9.95
2022-11-15T11:40:53.237Z,9.98
2022-11-15T11:44:28.597Z,9.87
2022-11-15T11:47:49.760Z,10.09
2022-11-15T11:50:51.896Z,10.03
2022-11-15T11:54:07.381Z,9.97
2022-11-15T11:57:31.907Z,10.06
2022-11-15T12:00:51.090Z,10.22
2022-11-15T12:04:28.052Z,10.13
2022-11-15T12:07:35.561Z,10.22
2022-11-15T12:10:37.654Z,10.21
2022-11-15T12:13:39.820Z,10.24
2022-11-15T12:16:43.724Z,10.27
2022-11-15T12:19:45.905Z,10.18
2022-11-15T12:22:55.328Z,10.37
2022-11-15T12:26:15.556Z,10.34
2022-11-15T12:29:24.239Z,10.39
2022-11-15T12:32:37.213Z,10.38
2022-11-15T12:35:42.087Z,10.34
2022-11-15T12:39:03.724Z,10.39
2022-11-15T12:42:05.648Z,10.36
2022-11-15T12:45:41.248Z,10.31
2022-11-15T12:48:43.308Z,10.35
2022-11-15T12:51:48.452Z,10.17
2022-11-15T12:54:56.364Z,10.16
2022-11-15T12:58:19.892Z,10.41
2022-11-15T13:01:45.214Z,10.23
2022-11-15T13:04:47.303Z,10.31
2022-11-15T13:07:49.233Z,10.47
2022-11-15T13:10:51.858Z,10.20
2022-11-15T13:13:53.919Z,10.41
2022-11-15T13:17:00.113Z,10.31
2022-11-15T13:20:08.131Z,10.49
2022-11-15T13:23:15.782Z,10.41
2022-11-15T13:26:17.801Z,10.44
2022-11-15T13:29:20.462Z,10.41
2022-11-15T13:32:22.562Z,10.54
2022-11-15T13:35:30.108Z,10.57
2022-11-15T13:38:39.045Z,10.12
2022-11-15T13:41:51.627Z,10.46
2022-11-15T13:44:59.291Z,10.22
2022-11-15T13:48:01.233Z,10.46
2022-11-15T13:51:05.924Z,10.36
2022-11-15T13:54:16.425Z,10.37
2022-11-15T13:57:28.654Z,10.37
2022-11-15T14:00:39.788Z,10.36
2022-11-15T14:03:58.405Z,10.28
2022-11-15T14:07:01.000Z,10.28
2022-11-15T14:10:27.114Z,10.21
2022-11-15T14:13:31.298Z,10.37
2022-11-15T14:16:45.035Z,10.42
2022-11-15T14:19:47.109Z,10.38
2022-11-15T14:23:03.296Z,10.39
2022-11-15T14:26:11.399Z,10.37
2022-11-15T14:29:27.155Z,10.57
2022-11-15T14:32:31.592Z,10.41
2022-11-15T14:35:33.717Z,10.32
2022-11-15T14:38:36.130Z,10.17
2022-11-15T14:41:41.174Z,10.27
2022-11-15T14:44:46.004Z,10.06
2022-11-15T14:47:48.518Z,9.97
2022-11-15T14:50:50.594Z,10.26
2022-11-15T14:53:53.167Z,10.44
2022-11-15T14:56:55.258Z,10.27
2022-11-15T14:59:57.977Z,10.95
2022-11-15T15:03:13.932Z,11.31
2022-11-15T15:06:18.292Z,11.37
2022-11-15T15:09:20.741Z,11.31
2022-11-15T15:12:24.262Z,10.91
2022-11-15T15:15:34.134Z,10.42
2022-11-15T15:18:36.179Z,11.12
2022-11-15T15:21:38.209Z,11.17
2022-11-15T15:24:40.280Z,11.15
2022-11-15T15:27:42.302Z,11.18
2022-11-15T15:30:44.689Z,11.38
2022-11-15T15:33:46.743Z,11.18
2022-11-15T15:36:48.817Z,11.28
2022-11-15T15:39:55.549Z,11.06
2022-11-15T15:42:57.621Z,11.25
2022-11-15T15:45:59.704Z,11.28
2022-11-15T15:49:01.847Z,11.51
2022-11-15T15:52:03.874Z,11.63
2022-11-15T15:55:06.188Z,11.56
2022-11-15T15:58:09.223Z,11.74
2022-11-15T16:01:11.479Z,11.63
2022-11-15T16:04:13.585Z,11.73
2022-11-15T16:07:22.371Z,11.79
2022-11-15T16:10:26.185Z,11.77
2022-11-15T16:13:29.379Z,11.71
2022-11-15T16:16:31.436Z,11.73
2022-11-15T16:19:33.495Z,11.82
2022-11-15T16:22:35.521Z,11.81
2022-11-15T16:25:50.390Z,11.77
2022-11-15T16:28:52.900Z,11.92
2022-11-15T16:31:55.234Z,12.09
2022-11-15T16:34:59.271Z,12.05
2022-11-15T16:38:01.324Z,11.96
2022-11-15T16:41:03.373Z,11.96
2022-11-15T16:44:05.429Z,11.99
2022-11-15T16:47:20.103Z,11.94
2022-11-15T16:50:30.869Z,11.61
2022-11-15T16:53:32.926Z,11.78
2022-11-15T16:56:35.064Z,11.49
2022-11-15T16:59:38.433Z,12.06
2022-11-15T17:02:40.698Z,12.12
2022-11-15T17:05:42.748Z,12.13
2022-11-15T17:08:45.930Z,12.02
2022-11-15T17:11:48.010Z,11.60
2022-11-15T17:14:50.029Z,11.25
2022-11-15T17:17:53.472Z,11.16
2022-11-15T17:20:55.530Z,11.28
2022-11-15T17:23:59.841Z,11.34
2022-11-15T17:27:01.915Z,11.72
2022-11-15T17:30:05.203Z,11.66
2022-11-15T17:33:08.000Z,11.29
2022-11-15T17:36:12.260Z,11.04
2022-11-15T17:39:14.302Z,11.05
2022-11-15T17:42:16.426Z,10.70
2022-11-15T17:45:18.462Z,10.49
2022-11-15T17:48:20.537Z,10.47
2022-11-15T17:51:24.078Z,10.51
2022-11-15T17:54:26.180Z,10.69
2022-11-15T17:57:28.228Z,10.64
2022-11-15T18:00:30.330Z,10.66
2022-11-15T18:03:37.833Z,10.63
2022-11-15T18:06:40.006Z,10.41
2022-11-15T18:09:44.066Z,10.64
2022-11-15T18:12:46.511Z,10.62
2022-11-15T18:15:56.083Z,10.25
2022-11-15T18:18:58.748Z,10.06
2022-11-15T18:22:01.725Z,9.83
2022-11-15T18:25:04.163Z,9.76
2022-11-15T18:28:06.262Z,9.61
2022-11-15T18:31:16.612Z,9.55
2022-11-15T18:34:18.737Z,9.57
2022-11-15T18:37:20.860Z,9.55
2022-11-15T18:40:22.974Z,9.75
2022-11-15T18:43:25.113Z,9.92
2022-11-15T18:46:31.448Z,9.80
2022-11-15T18:49:33.539Z,9.66
2022-11-15T18:52:35.641Z,9.99
2022-11-15T18:55:37.759Z,9.80
2022-11-15T18:58:45.456Z,10.01
2022-11-15T19:01:48.461Z,9.93
2022-11-15T19:04:50.678Z,9.82
2022-11-15T19:07:52.709Z,9.75
2022-11-15T19:10:54.769Z,9.56
2022-11-15T19:13:59.609Z,9.15
2022-11-15T19:17:01.677Z,9.24
2022-11-15T19:20:04.093Z,9.13
2022-11-15T19:23:06.124Z,8.93
2022-11-15T19:26:12.945Z,8.77
2022-11-15T19:29:18.290Z,9.22
2022-11-15T19:32:20.630Z,9.15
2022-11-15T19:35:22.720Z,9.13
2022-11-15T19:38:24.745Z,9.17
2022-11-15T19:41:26.843Z,9.32
2022-11-15T19:44:28.983Z,9.33
2022-11-15T19:47:31.060Z,9.68
2022-11-15T19:50:33.106Z,9.83
2022-11-15T19:53:35.833Z,9.58
2022-11-15T19:56:39.665Z,9.36
2022-11-15T19:59:41.723Z,9.54
2022-11-15T20:02:43.828Z,9.65
2022-11-15T20:05:45.889Z,9.55
2022-11-15T20:08:48.206Z,8.55
2022-11-15T20:11:50.316Z,8.19
2022-11-15T20:14:52.466Z,8.22
2022-11-15T20:17:54.509Z,8.51
2022-11-15T20:20:57.967Z,8.00
2022-11-15T20:24:00.531Z,8.01
2022-11-15T20:27:02.689Z,7.82
2022-11-15T20:30:05.251Z,8.03
2022-11-15T20:33:07.291Z,8.13
2022-11-15T20:36:15.395Z,8.27
2022-11-15T20:39:17.513Z,8.35
2022-11-15T20:42:19.594Z,8.46
2022-11-15T20:45:21.605Z,8.37
2022-11-15T20:48:23.682Z,8.47
2022-11-15T20:51:25.747Z,8.48
2022-11-15T20:54:27.756Z,8.51
2022-11-15T20:57:29.827Z,8.42
2022-11-15T21:00:31.885Z,8.51
2022-11-15T21:03:34.394Z,8.69
2022-11-15T21:06:36.454Z,8.72
2022-11-15T21:09:56.812Z,8.81
2022-11-15T21:12:58.850Z,8.34
2022-11-15T21:16:03.026Z,8.08
2022-11-15T21:19:06.107Z,8.18
2022-11-15T21:22:09.680Z,8.14
2022-11-15T21:25:11.749Z,8.01
2022-11-15T21:28:13.787Z,8.13
2022-11-15T21:31:15.901Z,7.98
2022-11-15T21:34:18.099Z,8.26
2022-11-15T21:37:20.120Z,8.43
2022-11-15T21:40:22.182Z,8.34
2022-11-15T21:43:24.232Z,8.19
2022-11-15T21:46:26.491Z,7.93
2022-11-15T21:49:28.554Z,7.93
2022-11-15T21:52:30.590Z,7.52
2022-11-15T21:55:32.663Z,7.81
2022-11-15T21:58:35.559Z,8.03
2022-11-15T22:01:56.359Z,8.01
2022-11-15T22:04:58.391Z,8.05
2022-11-15T22:08:00.469Z,7.86
2022-11-15T22:11:03.892Z,7.81
2022-11-15T22:14:06.054Z,7.62
2022-11-15T22:17:14.031Z,7.18
2022-11-15T22:20:43.047Z,7.29
2022-11-15T22:23:39.024Z,7.42
2022-11-15T22:26:41.073Z,7.08
2022-11-15T22:29:43.337Z,7.39
2022-11-15T22:32:45.673Z,7.49
2022-11-15T22:35:48.361Z,7.32
2022-11-15T22:38:50.444Z,7.09
2022-11-15T22:41:53.373Z,7.18
2022-11-15T22:44:55.435Z,7.28
2022-11-15T22:47:57.545Z,7.27
2022-11-15T22:50:59.784Z,7.25
2022-11-15T22:54:02.009Z,7.24
2022-11-15T22:57:04.227Z,7.32
2022-11-15T23:00:12.027Z,7.39
2022-11-15T23:03:14.048Z,6.97
2022-11-15T23:06:16.525Z,6.89
2022-11-15T23:09:18.613Z,6.84
2022-11-15T23:12:39.836Z,7.25
2022-11-15T23:16:00.778Z,7.47
2022-11-15T23:19:09.339Z,7.66
2022-11-15T23:22:41.001Z,7.58
2022-11-15T23:25:43.119Z,7.17
2022-11-15T23:28:45.198Z,6.80
2022-11-15T23:32:06.189Z,6.43
2022-11-15T23:35:09.958Z,6.44
2022-11-15T23:38:12.068Z,6.33
2022-11-15T23:41:14.186Z,6.59
2022-11-15T23:44:16.321Z,6.86
2022-11-15T23:47:21.410Z,6.84
2022-11-15T23:50:23.505Z,7.12
2022-11-15T23:53:25.585Z,7.29
2022-11-15T23:56:27.784Z,6.98
2022-11-15T23:59:29.884Z,7.09
